KMGJ/MGJ METAR and TAF weather

Enter ICAO airport designator
Station Type Date Time Source
KMGJ METAR 2019/04/25 11:54 UTC NOAA

KMGJ 251154Z AUTO 00000KT 10SM CLR 07/04 A2998 RMK AO2 SLP152 T00670039 10067 20022 53017 TSNO


Station Type Date Time Source
KMGJ Decoded METAR 2019/04/25 11:54 UTC NOAA

MONTGOMERY ORANGE CO AIRPORT, NY, United States (KMGJ) 41-31N 074-16W 108M
Apr 25, 2019 - 07:54 AM EDT / 2019.04.25 1154 UTC
Wind: Calm:0
Visibility: 10 mile(s):0
Sky conditions: clear
Temperature: 44.1 F (6.7 C)
Dew Point: 39.0 F (3.9 C)
Relative Humidity: 82%
Pressure (altimeter): 29.98 in. Hg (1015 hPa)
Pressure tendency: 0.05 inches (1.7 hPa) higher than three hours ago
ob: KMGJ 251154Z AUTO 00000KT 10SM CLR 07/04 A2998 RMK AO2 SLP152 T00670039 10067 20022 53017 TSNO
cycle: 12

Station Type Date Time Source
KMGJ TAF UTC NOAA

Error!

Example: see airport list